createdAt,value
2022-12-20T00:01:22.956Z,4.80
2022-12-20T00:03:51.939Z,4.80
2022-12-20T00:06:18.954Z,4.80
2022-12-20T00:08:46.189Z,4.80
2022-12-20T00:11:12.997Z,4.80
2022-12-20T00:13:39.750Z,4.80
2022-12-20T00:16:13.451Z,4.80
2022-12-20T00:18:41.811Z,4.80
2022-12-20T00:21:11.431Z,4.80
2022-12-20T00:23:38.948Z,4.80
2022-12-20T00:26:08.621Z,4.80
2022-12-20T00:28:36.608Z,4.80
2022-12-20T00:31:04.686Z,4.90
2022-12-20T00:33:32.801Z,4.80
2022-12-20T00:35:59.439Z,4.90
2022-12-20T00:38:27.205Z,4.80
2022-12-20T00:41:08.492Z,4.90
2022-12-20T00:43:35.826Z,4.90
2022-12-20T00:46:02.909Z,4.90
2022-12-20T00:48:31.259Z,4.90
2022-12-20T00:51:03.784Z,4.90
2022-12-20T00:53:31.291Z,4.90
2022-12-20T00:55:58.227Z,5.00
2022-12-20T00:58:25.818Z,5.00
2022-12-20T01:00:56.514Z,5.00
2022-12-20T01:03:24.537Z,5.00
2022-12-20T01:05:59.433Z,5.00
2022-12-20T01:08:27.988Z,5.00
2022-12-20T01:11:08.653Z,5.00
2022-12-20T01:13:38.675Z,5.00
2022-12-20T01:16:27.270Z,5.10
2022-12-20T01:18:54.521Z,5.10
2022-12-20T01:21:23.966Z,5.10
2022-12-20T01:23:51.054Z,5.10
2022-12-20T01:26:19.682Z,5.10
2022-12-20T01:28:48.395Z,5.10
2022-12-20T01:31:17.846Z,5.10
2022-12-20T01:33:45.887Z,5.10
2022-12-20T01:36:16.686Z,5.20
2022-12-20T01:38:43.967Z,5.20
2022-12-20T01:41:18.962Z,5.20
2022-12-20T01:44:17.656Z,5.20
2022-12-20T01:46:46.556Z,5.20
2022-12-20T01:49:22.297Z,5.20
2022-12-20T01:51:53.923Z,5.10
2022-12-20T01:54:41.128Z,5.00
2022-12-20T01:57:14.509Z,4.90
2022-12-20T01:59:44.564Z,4.90
2022-12-20T02:02:13.714Z,5.00
2022-12-20T02:04:41.440Z,5.00
2022-12-20T02:07:10.384Z,5.10
2022-12-20T02:09:38.684Z,5.10
2022-12-20T02:12:15.538Z,5.10
2022-12-20T02:15:08.693Z,5.20
2022-12-20T02:18:09.496Z,5.20
2022-12-20T02:20:48.301Z,5.20
2022-12-20T02:23:26.387Z,5.20
2022-12-20T02:25:55.717Z,5.20
2022-12-20T02:28:32.786Z,5.30
2022-12-20T02:31:04.675Z,5.30
2022-12-20T02:33:31.388Z,5.40
2022-12-20T02:35:58.113Z,5.40
2022-12-20T02:38:34.324Z,5.40
2022-12-20T02:41:19.781Z,5.40
2022-12-20T02:44:09.918Z,5.50
2022-12-20T02:46:38.023Z,5.50
2022-12-20T02:49:11.404Z,5.50
2022-12-20T02:51:39.796Z,5.50
2022-12-20T02:54:06.467Z,5.40
2022-12-20T02:56:43.392Z,5.40
2022-12-20T02:59:21.822Z,5.40
2022-12-20T03:01:55.268Z,5.30
2022-12-20T03:04:29.187Z,5.30
2022-12-20T03:07:04.362Z,5.30
2022-12-20T03:09:33.025Z,5.30
2022-12-20T03:12:00.161Z,5.20
2022-12-20T03:14:27.117Z,5.20
2022-12-20T03:16:54.159Z,5.20
2022-12-20T03:19:21.407Z,5.30
2022-12-20T03:21:48.052Z,5.30
2022-12-20T03:24:15.040Z,5.30
2022-12-20T03:26:42.332Z,5.40
2022-12-20T03:29:09.511Z,5.30
2022-12-20T03:31:37.024Z,5.30
2022-12-20T03:34:04.476Z,5.30
2022-12-20T03:36:31.394Z,5.30
2022-12-20T03:38:58.145Z,5.20
2022-12-20T03:41:25.883Z,5.30
2022-12-20T03:43:52.768Z,5.30
2022-12-20T03:46:19.575Z,5.30
2022-12-20T03:48:46.214Z,5.30
2022-12-20T03:51:12.804Z,5.40
2022-12-20T03:53:39.514Z,5.40
2022-12-20T03:56:06.489Z,5.50
2022-12-20T03:58:33.180Z,5.50
2022-12-20T04:00:59.823Z,5.50
2022-12-20T04:03:26.670Z,5.50
2022-12-20T04:05:53.371Z,5.40
2022-12-20T04:08:20.011Z,5.40
2022-12-20T04:11:12.622Z,5.30
2022-12-20T04:13:39.215Z,5.30
2022-12-20T04:16:06.023Z,5.20
2022-12-20T04:18:32.673Z,5.20
2022-12-20T04:21:01.270Z,5.30
2022-12-20T04:23:27.887Z,5.30
2022-12-20T04:25:54.599Z,5.30
2022-12-20T04:28:21.277Z,5.20
2022-12-20T04:30:47.943Z,5.30
2022-12-20T04:33:14.575Z,5.20
2022-12-20T04:35:41.270Z,5.30
2022-12-20T04:38:07.943Z,5.20
2022-12-20T04:40:34.619Z,5.20
2022-12-20T04:43:01.335Z,5.20
2022-12-20T04:45:28.034Z,5.20
2022-12-20T04:47:54.648Z,5.20
2022-12-20T04:50:21.349Z,5.20
2022-12-20T04:53:06.707Z,5.20
2022-12-20T04:55:37.124Z,5.30
2022-12-20T04:58:07.638Z,5.30
2022-12-20T05:00:34.826Z,5.30
2022-12-20T05:03:01.794Z,5.30
2022-12-20T05:05:28.989Z,5.30
2022-12-20T05:07:55.769Z,5.30
2022-12-20T05:10:22.743Z,5.30
2022-12-20T05:12:49.386Z,5.30
2022-12-20T05:15:16.065Z,5.30
2022-12-20T05:17:42.716Z,5.30
2022-12-20T05:20:10.605Z,5.30
2022-12-20T05:22:55.793Z,5.40
2022-12-20T05:25:41.115Z,5.30
2022-12-20T05:28:07.822Z,5.40
2022-12-20T05:30:34.798Z,5.40
2022-12-20T05:33:01.461Z,5.40
2022-12-20T05:35:28.168Z,5.40
2022-12-20T05:37:55.075Z,5.30
2022-12-20T05:40:22.360Z,5.30
2022-12-20T05:42:48.955Z,5.20
2022-12-20T05:45:15.692Z,5.20
2022-12-20T05:47:42.369Z,5.10
2022-12-20T05:50:12.254Z,5.10
2022-12-20T05:52:43.469Z,5.20
2022-12-20T05:55:10.463Z,5.20
2022-12-20T05:57:37.208Z,5.20
2022-12-20T06:00:05.715Z,5.20
2022-12-20T06:02:32.521Z,5.20
2022-12-20T06:04:59.723Z,5.20
2022-12-20T06:07:28.935Z,5.20
2022-12-20T06:09:56.509Z,5.30
2022-12-20T06:12:23.534Z,5.30
2022-12-20T06:14:50.711Z,5.30
2022-12-20T06:17:17.549Z,5.20
2022-12-20T06:19:44.212Z,5.20
2022-12-20T06:22:10.954Z,5.30
2022-12-20T06:24:44.339Z,5.30
2022-12-20T06:27:12.762Z,5.30
2022-12-20T06:29:39.480Z,5.30
2022-12-20T06:32:06.285Z,5.30
2022-12-20T06:34:33.188Z,5.30
2022-12-20T06:36:59.847Z,5.30
2022-12-20T06:39:26.605Z,5.30
2022-12-20T06:41:53.211Z,5.30
2022-12-20T06:44:19.893Z,5.40
2022-12-20T06:46:46.556Z,5.40
2022-12-20T06:49:13.244Z,5.40
2022-12-20T06:51:39.904Z,5.50
2022-12-20T06:54:06.508Z,5.60
2022-12-20T06:56:39.244Z,5.70
2022-12-20T06:59:07.793Z,5.80
2022-12-20T07:01:34.568Z,5.80
2022-12-20T07:04:01.297Z,5.90
2022-12-20T07:06:29.315Z,5.90
2022-12-20T07:08:56.258Z,5.80
2022-12-20T07:11:23.022Z,5.80
2022-12-20T07:13:50.319Z,5.80
2022-12-20T07:16:17.048Z,5.80
2022-12-20T07:18:43.745Z,5.80
2022-12-20T07:21:10.402Z,5.80
2022-12-20T07:23:37.096Z,5.80
2022-12-20T07:26:04.178Z,5.80
2022-12-20T07:28:30.929Z,5.80
2022-12-20T07:31:01.690Z,5.80
2022-12-20T07:33:28.807Z,5.80
2022-12-20T07:36:07.144Z,5.80
2022-12-20T07:38:35.517Z,6.00
2022-12-20T07:41:08.174Z,5.90
2022-12-20T07:43:34.972Z,6.00
2022-12-20T07:46:02.468Z,5.90
2022-12-20T07:48:29.221Z,6.00
2022-12-20T07:51:05.781Z,6.00
2022-12-20T07:53:36.985Z,6.00
2022-12-20T07:56:07.210Z,6.00
2022-12-20T07:58:35.309Z,6.00
2022-12-20T08:01:02.683Z,6.10
2022-12-20T08:03:36.704Z,6.10
2022-12-20T08:06:06.335Z,6.00
2022-12-20T08:08:35.957Z,6.00
2022-12-20T08:11:04.394Z,6.00
2022-12-20T08:13:32.967Z,6.00
2022-12-20T08:16:00.504Z,5.90
2022-12-20T08:18:27.192Z,5.90
2022-12-20T08:20:53.900Z,5.90
2022-12-20T08:23:20.497Z,6.00
2022-12-20T08:25:47.153Z,5.90
2022-12-20T08:28:13.817Z,5.90
2022-12-20T08:30:40.582Z,6.00
2022-12-20T08:33:07.317Z,6.00
2022-12-20T08:35:34.404Z,6.10
2022-12-20T08:38:01.192Z,6.10
2022-12-20T08:40:27.781Z,6.20
2022-12-20T08:42:54.689Z,6.30
2022-12-20T08:45:21.375Z,6.30
2022-12-20T08:47:48.025Z,6.50
2022-12-20T08:50:14.742Z,6.60
2022-12-20T08:52:41.401Z,6.60
2022-12-20T08:55:08.465Z,6.70
2022-12-20T08:57:35.281Z,6.70
2022-12-20T09:00:02.866Z,6.70
2022-12-20T09:02:29.677Z,6.70
2022-12-20T09:04:56.784Z,6.70
2022-12-20T09:07:23.425Z,6.60
2022-12-20T09:09:50.059Z,6.60
2022-12-20T09:12:16.734Z,6.60
2022-12-20T09:14:43.531Z,6.60
2022-12-20T09:17:10.146Z,6.60
2022-12-20T09:19:36.773Z,6.70
2022-12-20T09:22:04.237Z,6.80
2022-12-20T09:24:31.419Z,6.90
2022-12-20T09:26:58.038Z,7.00
2022-12-20T09:29:29.501Z,7.00
2022-12-20T09:32:01.308Z,7.10
2022-12-20T09:34:27.936Z,7.20
2022-12-20T09:36:55.104Z,7.30
2022-12-20T09:39:21.728Z,7.50
2022-12-20T09:41:48.841Z,7.60
2022-12-20T09:44:21.647Z,7.80
2022-12-20T09:46:56.900Z,8.20
2022-12-20T09:49:29.446Z,8.80
2022-12-20T09:52:14.458Z,9.30
2022-12-20T09:54:55.983Z,9.80
2022-12-20T09:57:40.125Z,10.00
2022-12-20T10:00:18.677Z,9.90
2022-12-20T10:03:09.281Z,9.50
2022-12-20T10:05:48.409Z,9.20
2022-12-20T10:08:23.654Z,8.90
2022-12-20T10:10:59.520Z,8.70
2022-12-20T10:13:47.426Z,8.60
2022-12-20T10:16:28.710Z,8.50
2022-12-20T10:19:14.293Z,8.40
2022-12-20T10:21:57.862Z,8.30
2022-12-20T10:24:30.402Z,8.30
2022-12-20T10:27:02.914Z,8.20
2022-12-20T10:29:29.653Z,8.20
2022-12-20T10:32:00.557Z,8.20
2022-12-20T10:34:33.329Z,8.10
2022-12-20T10:37:14.566Z,8.10
2022-12-20T10:39:51.946Z,8.20
2022-12-20T10:42:27.692Z,8.20
2022-12-20T10:44:55.894Z,8.20
2022-12-20T10:47:28.158Z,8.20
2022-12-20T10:50:15.741Z,8.20
2022-12-20T10:52:44.122Z,8.20
2022-12-20T10:55:41.166Z,8.20
2022-12-20T10:58:27.912Z,8.20
2022-12-20T11:01:12.677Z,8.20
2022-12-20T11:03:58.074Z,8.20
2022-12-20T11:06:29.154Z,8.20
2022-12-20T11:09:31.313Z,8.20
2022-12-20T11:12:12.631Z,8.20
2022-12-20T11:14:40.300Z,8.20
2022-12-20T11:17:35.978Z,8.20
2022-12-20T11:20:43.247Z,8.20
2022-12-20T11:23:18.450Z,8.20
2022-12-20T11:26:15.314Z,8.20
2022-12-20T11:29:29.637Z,8.20
2022-12-20T11:32:22.118Z,8.20
2022-12-20T11:35:11.400Z,8.30
2022-12-20T11:38:09.258Z,8.30
2022-12-20T11:40:47.963Z,8.30
2022-12-20T11:43:39.055Z,8.30
2022-12-20T11:47:01.303Z,8.30
2022-12-20T11:49:42.349Z,8.40
2022-12-20T11:52:26.780Z,8.50
2022-12-20T11:55:14.638Z,8.60
2022-12-20T11:58:17.340Z,8.60
2022-12-20T12:00:41.603Z,8.70
2022-12-20T12:03:18.942Z,8.70
2022-12-20T12:05:56.460Z,8.70
2022-12-20T12:08:31.302Z,8.90
2022-12-20T12:11:56.186Z,9.00
2022-12-20T12:14:16.584Z,9.00
2022-12-20T12:16:47.718Z,9.20
2022-12-20T12:19:15.709Z,9.20
2022-12-20T12:21:59.325Z,9.30
2022-12-20T12:24:39.390Z,9.30
2022-12-20T12:27:16.208Z,9.30
2022-12-20T12:29:43.583Z,9.20
2022-12-20T12:32:37.901Z,9.20
2022-12-20T12:35:44.067Z,9.20
2022-12-20T12:38:35.316Z,9.20
2022-12-20T12:41:39.728Z,9.10
2022-12-20T12:44:18.588Z,9.10
2022-12-20T12:46:46.519Z,9.10
2022-12-20T12:49:21.441Z,9.10
2022-12-20T12:51:55.783Z,9.10
2022-12-20T12:54:37.514Z,9.10
2022-12-20T12:57:12.818Z,9.10
2022-12-20T12:59:39.622Z,9.00
2022-12-20T13:02:16.230Z,9.10
2022-12-20T13:04:59.602Z,9.10
2022-12-20T13:07:43.317Z,9.10
2022-12-20T13:10:09.988Z,9.10
2022-12-20T13:12:36.649Z,9.00
2022-12-20T13:15:23.340Z,9.00
2022-12-20T13:17:54.390Z,9.00
2022-12-20T13:20:26.057Z,8.90
2022-12-20T13:23:11.721Z,8.90
2022-12-20T13:25:48.251Z,9.00
2022-12-20T13:28:24.093Z,9.00
2022-12-20T13:30:54.436Z,8.90
2022-12-20T13:33:24.384Z,8.90
2022-12-20T13:36:15.735Z,8.90
2022-12-20T13:38:52.099Z,8.90
2022-12-20T13:41:36.739Z,8.90
2022-12-20T13:44:11.486Z,8.80
2022-12-20T13:47:10.183Z,8.80
2022-12-20T13:49:41.049Z,8.80
2022-12-20T13:52:11.424Z,8.90
2022-12-20T13:54:50.491Z,9.00
2022-12-20T13:57:43.286Z,9.00
2022-12-20T14:00:25.810Z,9.00
2022-12-20T14:02:54.146Z,9.00
2022-12-20T14:05:26.666Z,9.00
2022-12-20T14:08:00.717Z,8.90
2022-12-20T14:10:29.390Z,8.90
2022-12-20T14:12:57.774Z,8.90
2022-12-20T14:15:33.265Z,8.90
2022-12-20T14:18:26.610Z,8.90
2022-12-20T14:21:01.757Z,8.80
2022-12-20T14:23:38.039Z,8.90
2022-12-20T14:26:05.122Z,8.90
2022-12-20T14:28:39.254Z,8.90
2022-12-20T14:31:22.049Z,8.90
2022-12-20T14:33:50.542Z,8.90
2022-12-20T14:36:17.159Z,8.90
2022-12-20T14:38:51.523Z,8.90
2022-12-20T14:41:31.965Z,8.90
2022-12-20T14:44:07.110Z,8.90
2022-12-20T14:46:35.873Z,8.90
2022-12-20T14:49:23.536Z,8.90
2022-12-20T14:51:51.090Z,8.90
2022-12-20T14:54:56.734Z,8.90
2022-12-20T14:57:20.046Z,8.90
2022-12-20T15:00:02.080Z,8.80
2022-12-20T15:02:43.880Z,8.80
2022-12-20T15:05:36.056Z,8.90
2022-12-20T15:08:12.192Z,8.80
2022-12-20T15:10:39.306Z,8.80
2022-12-20T15:13:12.436Z,8.80
2022-12-20T15:15:39.638Z,8.80
2022-12-20T15:18:15.470Z,8.70
2022-12-20T15:20:44.458Z,8.70
2022-12-20T15:23:19.642Z,8.70
2022-12-20T15:25:47.437Z,8.60
2022-12-20T15:28:20.301Z,8.50
2022-12-20T15:30:49.020Z,8.60
2022-12-20T15:33:18.871Z,8.50
2022-12-20T15:35:46.501Z,8.50
2022-12-20T15:38:25.480Z,8.50
2022-12-20T15:41:05.771Z,8.50
2022-12-20T15:43:39.072Z,8.50
2022-12-20T15:46:06.064Z,8.40
2022-12-20T15:48:32.759Z,8.30
2022-12-20T15:50:59.536Z,8.30
2022-12-20T15:53:30.993Z,8.30
2022-12-20T15:55:57.759Z,8.30
2022-12-20T15:58:25.507Z,8.30
2022-12-20T16:00:55.679Z,8.30
2022-12-20T16:03:25.408Z,8.40
2022-12-20T16:05:52.321Z,8.40
2022-12-20T16:08:19.105Z,8.40
2022-12-20T16:10:47.536Z,8.40
2022-12-20T16:13:22.370Z,8.40
2022-12-20T16:15:49.121Z,8.40
2022-12-20T16:18:16.317Z,8.50
2022-12-20T16:20:43.697Z,8.50
2022-12-20T16:23:24.434Z,8.60
2022-12-20T16:25:51.501Z,8.50
2022-12-20T16:28:18.573Z,8.50
2022-12-20T16:30:52.714Z,8.60
2022-12-20T16:33:21.354Z,8.60
2022-12-20T16:35:48.505Z,8.50
2022-12-20T16:38:15.300Z,8.60
2022-12-20T16:40:42.127Z,8.50
2022-12-20T16:43:15.452Z,8.50
2022-12-20T16:45:42.230Z,8.40
2022-12-20T16:48:08.893Z,8.30
2022-12-20T16:50:41.616Z,8.30
2022-12-20T16:53:12.865Z,8.30
2022-12-20T16:55:40.200Z,8.30
2022-12-20T16:58:07.237Z,8.30
2022-12-20T17:00:34.192Z,8.30
2022-12-20T17:03:01.143Z,8.30
2022-12-20T17:05:31.885Z,8.30
2022-12-20T17:07:58.639Z,8.20
2022-12-20T17:10:27.113Z,8.10
2022-12-20T17:12:54.430Z,8.10
2022-12-20T17:15:28.025Z,8.20
2022-12-20T17:17:55.460Z,8.20
2022-12-20T17:20:24.698Z,8.20
2022-12-20T17:25:38.198Z,8.20
2022-12-20T17:28:06.194Z,8.20
2022-12-20T17:30:32.891Z,8.10
2022-12-20T17:32:59.522Z,8.10
2022-12-20T17:35:30.563Z,8.10
2022-12-20T17:37:57.924Z,8.10
2022-12-20T17:40:27.309Z,8.10
2022-12-20T17:42:54.610Z,8.20
2022-12-20T17:45:26.366Z,8.30
2022-12-20T17:47:54.218Z,8.30
2022-12-20T17:50:21.804Z,8.30
2022-12-20T17:52:48.864Z,8.30
2022-12-20T17:55:27.143Z,8.20
2022-12-20T17:57:55.268Z,8.20
2022-12-20T18:00:34.746Z,8.10
2022-12-20T18:03:05.236Z,8.00
2022-12-20T18:05:32.032Z,8.00
2022-12-20T18:07:58.678Z,8.00
2022-12-20T18:10:25.383Z,8.10
2022-12-20T18:12:52.130Z,8.10
2022-12-20T18:15:20.232Z,8.00
2022-12-20T18:17:47.116Z,8.00
2022-12-20T18:20:14.630Z,8.00
2022-12-20T18:22:41.403Z,7.90
2022-12-20T18:25:08.741Z,7.90
2022-12-20T18:27:40.690Z,7.90
2022-12-20T18:30:10.654Z,7.90
2022-12-20T18:32:39.970Z,7.90
2022-12-20T18:35:07.766Z,7.90
2022-12-20T18:37:34.356Z,7.90
2022-12-20T18:40:03.996Z,7.90
2022-12-20T18:42:30.721Z,7.90
2022-12-20T18:44:57.396Z,7.90
2022-12-20T18:47:24.431Z,7.90
2022-12-20T18:49:51.470Z,7.80
2022-12-20T18:52:18.103Z,7.80
2022-12-20T18:54:44.890Z,7.80
2022-12-20T18:57:11.594Z,7.80
2022-12-20T18:59:38.248Z,7.70
2022-12-20T19:02:05.001Z,7.70
2022-12-20T19:04:31.702Z,7.80
2022-12-20T19:06:58.373Z,7.70
2022-12-20T19:09:25.129Z,7.80
2022-12-20T19:11:56.989Z,7.80
2022-12-20T19:14:24.409Z,7.90
2022-12-20T19:16:51.839Z,7.90
2022-12-20T19:19:18.664Z,7.90
2022-12-20T19:21:45.393Z,7.90
2022-12-20T19:24:12.310Z,7.90
2022-12-20T19:26:39.663Z,7.90
2022-12-20T19:29:06.782Z,7.90
2022-12-20T19:31:36.342Z,7.80
2022-12-20T19:34:06.640Z,7.90
2022-12-20T19:36:42.035Z,7.80
2022-12-20T19:39:14.532Z,7.80
2022-12-20T19:41:41.174Z,7.80
2022-12-20T19:44:08.799Z,7.80
2022-12-20T19:46:35.753Z,7.80
2022-12-20T19:49:02.439Z,7.80
2022-12-20T19:51:29.569Z,7.90
2022-12-20T19:53:58.146Z,7.90
2022-12-20T19:56:27.330Z,7.90
2022-12-20T19:58:55.342Z,7.90
2022-12-20T20:01:27.085Z,7.90
2022-12-20T20:03:56.145Z,7.90
2022-12-20T20:06:23.524Z,7.90
2022-12-20T20:08:50.461Z,7.80
2022-12-20T20:11:19.441Z,7.90
2022-12-20T20:13:46.397Z,7.90
2022-12-20T20:16:16.873Z,7.90
2022-12-20T20:18:47.157Z,7.90
2022-12-20T20:21:21.367Z,8.00
2022-12-20T20:23:50.156Z,8.00
2022-12-20T20:26:20.381Z,7.90
2022-12-20T20:28:48.081Z,8.00
2022-12-20T20:31:16.946Z,8.00
2022-12-20T20:33:44.125Z,8.00
2022-12-20T20:36:14.815Z,7.90
2022-12-20T20:38:41.667Z,7.90
2022-12-20T20:41:09.280Z,7.90
2022-12-20T20:43:39.384Z,7.90
2022-12-20T20:46:09.711Z,7.90
2022-12-20T20:48:37.346Z,7.90
2022-12-20T20:51:05.529Z,7.90
2022-12-20T20:53:34.113Z,7.90
2022-12-20T20:56:02.375Z,7.90
2022-12-20T20:58:29.852Z,7.90
2022-12-20T21:00:58.806Z,7.80
2022-12-20T21:03:27.317Z,7.90
2022-12-20T21:08:41.405Z,7.80
2022-12-20T21:11:09.181Z,7.80
2022-12-20T21:13:35.959Z,7.90
2022-12-20T21:16:16.130Z,7.80
2022-12-20T21:18:43.263Z,7.90
2022-12-20T21:21:11.669Z,7.90
2022-12-20T21:23:39.727Z,7.90
2022-12-20T21:26:07.517Z,7.90
2022-12-20T21:28:34.470Z,7.80
2022-12-20T21:31:02.366Z,7.80
2022-12-20T21:33:29.587Z,7.70
2022-12-20T21:36:07.730Z,7.70
2022-12-20T21:38:34.922Z,7.60
2022-12-20T21:41:06.963Z,7.60
2022-12-20T21:43:33.973Z,7.60
2022-12-20T21:46:01.073Z,7.50
2022-12-20T21:48:29.665Z,7.50
2022-12-20T21:51:06.404Z,7.50
2022-12-20T21:53:33.300Z,7.50
2022-12-20T21:56:00.854Z,7.50
2022-12-20T21:58:29.680Z,7.50
2022-12-20T22:00:57.090Z,7.50
2022-12-20T22:03:24.996Z,7.50
2022-12-20T22:05:55.576Z,7.50
2022-12-20T22:08:23.627Z,7.40
2022-12-20T22:11:09.497Z,7.40
2022-12-20T22:13:41.053Z,7.40
2022-12-20T22:16:17.003Z,7.40
2022-12-20T22:18:47.781Z,7.40
2022-12-20T22:21:15.442Z,7.40
2022-12-20T22:23:42.595Z,7.30
2022-12-20T22:26:12.044Z,7.40
2022-12-20T22:28:40.138Z,7.30
2022-12-20T22:31:08.734Z,7.30
2022-12-20T22:33:36.164Z,7.30
2022-12-20T22:36:03.369Z,7.30
2022-12-20T22:38:30.072Z,7.30
2022-12-20T22:41:13.575Z,7.20
2022-12-20T22:43:41.333Z,7.20
2022-12-20T22:46:10.472Z,7.20
2022-12-20T22:48:38.223Z,7.20
2022-12-20T22:51:21.856Z,7.20
2022-12-20T22:53:49.201Z,7.20
2022-12-20T22:56:17.793Z,7.10
2022-12-20T22:58:44.677Z,7.10
2022-12-20T23:01:15.298Z,7.10
2022-12-20T23:03:42.548Z,7.20
2022-12-20T23:06:12.934Z,7.20
2022-12-20T23:08:39.883Z,7.20
2022-12-20T23:11:37.818Z,7.10
2022-12-20T23:14:23.654Z,7.10
2022-12-20T23:16:50.641Z,7.10
2022-12-20T23:19:17.448Z,7.10
2022-12-20T23:22:02.837Z,7.10
2022-12-20T23:24:29.484Z,7.10
2022-12-20T23:26:56.401Z,7.10
2022-12-20T23:29:23.432Z,7.10
2022-12-20T23:31:50.213Z,7.10
2022-12-20T23:34:16.903Z,7.10
2022-12-20T23:36:43.612Z,7.10
2022-12-20T23:39:10.274Z,7.20
2022-12-20T23:41:36.905Z,7.20
2022-12-20T23:44:05.099Z,7.20
2022-12-20T23:46:31.864Z,7.20
2022-12-20T23:48:58.585Z,7.20
2022-12-20T23:51:25.159Z,7.20
2022-12-20T23:53:52.730Z,7.20
2022-12-20T23:56:21.628Z,7.20
2022-12-20T23:58:55.110Z,7.20
